CheckWX is a tool to help pilots better visualize weather data.  It is not intended as a substitute for an official pre-flight weather briefing.

14:36:25 UTC

VGHS METAR
Dhaka
Dhaka, Bangladesh
Current

36 mins ago

VGHS 211400Z 35004KT 3500 HZ FEW100 25/15 Q1018 NOSIG
Observed
Feb-21 @ 14:00 UTC
Wind
  • 350° at 4 KTS
Visibility
3,500 meters
Flight Rules
IFR
Conditions
Haze
Cloud Levels
  • Few at 10,000' AGL
Temperature
25°C / 77°F
Dewpoint
15°C / 59°F
Humidity
54%
Altimeter
30.06" Hg
Pressure
1017.92 hPa
Previous

1 hour ago

VGHS 211330Z 34005KT 3500 HZ SCT100 26/15 Q1018 NOSIG
Observed
Feb-21 @ 13:30 UTC
Wind
  • 340° at 5 KTS
Visibility
3,500 meters
Flight Rules
IFR
Conditions
Haze
Cloud Levels
  • Scattered at 10,000' AGL
Temperature
26°C / 79°F
Dewpoint
15°C / 59°F
Humidity
51%
Altimeter
30.06" Hg
Pressure
1017.92 hPa
Previous

2 hours ago

VGHS 211300Z 32004KT 3500 HZ SCT100 26/15 Q1017 NOSIG
Observed
Feb-21 @ 13:00 UTC
Wind
  • 320° at 4 KTS
Visibility
3,500 meters
Flight Rules
IFR
Conditions
Haze
Cloud Levels
  • Scattered at 10,000' AGL
Temperature
26°C / 79°F
Dewpoint
15°C / 59°F
Humidity
51%
Altimeter
30.03" Hg
Pressure
1016.92 hPa